createdAt,value
2023-01-22T00:01:24.664Z,9.32
2023-01-22T00:03:56.283Z,9.40
2023-01-22T00:06:24.169Z,8.43
2023-01-22T00:08:53.171Z,7.12
2023-01-22T00:11:21.249Z,10.40
2023-01-22T00:13:52.158Z,10.18
2023-01-22T00:16:20.646Z,14.07
2023-01-22T00:18:48.416Z,6.50
2023-01-22T00:21:16.171Z,9.15
2023-01-22T00:23:44.393Z,10.40
2023-01-22T00:26:14.484Z,12.40
2023-01-22T00:28:45.987Z,14.98
2023-01-22T00:31:16.292Z,6.28
2023-01-22T00:33:45.526Z,9.55
2023-01-22T00:36:20.348Z,12.35
2023-01-22T00:38:52.369Z,9.60
2023-01-22T00:41:21.133Z,10.23
2023-01-22T00:43:51.767Z,11.57
2023-01-22T00:46:21.322Z,10.93
2023-01-22T00:48:52.604Z,9.63
2023-01-22T00:51:23.478Z,9.60
2023-01-22T00:53:51.706Z,10.45
2023-01-22T00:56:19.526Z,6.72
2023-01-22T00:58:50.176Z,9.48
2023-01-22T01:01:18.639Z,8.63
2023-01-22T01:03:46.591Z,6.03
2023-01-22T01:06:17.453Z,11.77
2023-01-22T01:08:50.355Z,7.62
2023-01-22T01:11:28.181Z,11.23
2023-01-22T01:13:56.931Z,7.35
2023-01-22T01:16:29.515Z,10.88
2023-01-22T01:19:04.284Z,7.55
2023-01-22T01:21:32.506Z,7.82
2023-01-22T01:24:01.354Z,7.78
2023-01-22T01:26:29.446Z,6.60
2023-01-22T01:28:57.294Z,6.90
2023-01-22T01:31:28.867Z,8.07
2023-01-22T01:33:58.420Z,7.55
2023-01-22T01:36:47.139Z,9.98
2023-01-22T01:39:15.357Z,9.43
2023-01-22T01:41:43.558Z,9.00
2023-01-22T01:44:20.886Z,9.27
2023-01-22T01:47:06.163Z,10.57
2023-01-22T01:49:51.271Z,7.85
2023-01-22T01:52:20.963Z,8.30
2023-01-22T01:54:52.785Z,10.45
2023-01-22T01:57:30.792Z,9.93
2023-01-22T01:59:59.529Z,11.00
2023-01-22T02:02:30.547Z,9.85
2023-01-22T02:04:59.047Z,11.20
2023-01-22T02:07:26.937Z,13.62
2023-01-22T02:09:54.934Z,10.05
2023-01-22T02:12:23.350Z,8.52
2023-01-22T02:14:51.290Z,8.95
2023-01-22T02:17:34.352Z,8.90
2023-01-22T02:20:02.041Z,11.30
2023-01-22T02:22:33.659Z,11.43
2023-01-22T02:25:01.718Z,13.55
2023-01-22T02:27:31.313Z,12.52
2023-01-22T02:29:59.654Z,12.88
2023-01-22T02:32:31.040Z,14.63
2023-01-22T02:34:59.488Z,10.63
2023-01-22T02:37:27.376Z,12.60
2023-01-22T02:39:56.021Z,10.25
2023-01-22T02:42:24.380Z,7.32
2023-01-22T02:44:53.307Z,12.73
2023-01-22T02:47:21.225Z,13.02
2023-01-22T02:49:49.387Z,14.20
2023-01-22T02:52:17.329Z,9.55
2023-01-22T02:54:45.871Z,13.90
2023-01-22T02:57:14.059Z,9.25
2023-01-22T02:59:41.874Z,12.50
2023-01-22T03:02:12.003Z,9.50
2023-01-22T03:04:43.147Z,12.88
2023-01-22T03:07:14.149Z,14.32
2023-01-22T03:09:42.480Z,14.43
2023-01-22T03:12:10.956Z,16.45
2023-01-22T03:14:57.591Z,9.73
2023-01-22T03:17:44.466Z,13.82
2023-01-22T03:20:31.153Z,13.90
2023-01-22T03:22:59.457Z,15.40
2023-01-22T03:25:27.284Z,13.82
2023-01-22T03:28:16.841Z,11.65
2023-01-22T03:30:46.834Z,8.57
2023-01-22T03:33:17.709Z,11.95
2023-01-22T03:35:48.199Z,13.02
2023-01-22T03:38:16.643Z,16.73
2023-01-22T03:40:44.626Z,14.45
2023-01-22T03:43:16.179Z,16.08
2023-01-22T03:45:44.114Z,19.85
2023-01-22T03:48:13.072Z,2.33
2023-01-22T03:50:41.159Z,16.98
2023-01-22T03:53:09.029Z,9.50
2023-01-22T03:55:37.375Z,17.77
2023-01-22T03:58:05.376Z,12.13
2023-01-22T04:00:33.353Z,13.70
2023-01-22T04:03:01.884Z,8.85
2023-01-22T04:05:30.558Z,15.40
2023-01-22T04:07:58.741Z,12.85
2023-01-22T04:10:27.414Z,13.40
2023-01-22T04:12:55.848Z,15.38
2023-01-22T04:15:24.085Z,14.57
2023-01-22T04:17:53.990Z,15.88
2023-01-22T04:20:24.862Z,12.90
2023-01-22T04:22:53.420Z,11.65
2023-01-22T04:25:21.607Z,13.30
2023-01-22T04:27:49.487Z,13.00
2023-01-22T04:30:18.598Z,16.00
2023-01-22T04:32:47.211Z,11.38
2023-01-22T04:35:15.559Z,13.13
2023-01-22T04:37:44.213Z,14.38
2023-01-22T04:40:12.582Z,13.43
2023-01-22T04:42:41.109Z,13.15
2023-01-22T04:45:10.028Z,8.88
2023-01-22T04:47:45.950Z,13.77
2023-01-22T04:50:19.219Z,18.17
2023-01-22T04:52:48.132Z,15.65
2023-01-22T04:55:16.481Z,15.60
2023-01-22T04:57:45.897Z,10.98
2023-01-22T05:00:17.618Z,13.85
2023-01-22T05:02:46.172Z,10.02
2023-01-22T05:05:14.501Z,13.30
2023-01-22T05:07:45.748Z,12.82
2023-01-22T05:10:15.064Z,18.05
2023-01-22T05:12:43.210Z,12.85
2023-01-22T05:15:23.718Z,19.27
2023-01-22T05:17:56.891Z,15.75
2023-01-22T05:20:25.815Z,9.55
2023-01-22T05:22:56.942Z,12.63
2023-01-22T05:25:25.048Z,13.77
2023-01-22T05:27:53.107Z,16.37
2023-01-22T05:30:22.642Z,16.02
2023-01-22T05:32:55.472Z,11.45
2023-01-22T05:35:24.629Z,11.00
2023-01-22T05:37:52.564Z,13.45
2023-01-22T05:40:21.213Z,12.23
2023-01-22T05:42:49.484Z,16.05
2023-01-22T05:45:17.464Z,15.50
2023-01-22T05:47:51.261Z,11.12
2023-01-22T05:50:20.287Z,16.70
2023-01-22T05:52:48.246Z,13.62
2023-01-22T05:55:17.390Z,13.55
2023-01-22T05:57:47.473Z,14.57
2023-01-22T06:00:18.574Z,13.10
2023-01-22T06:02:47.659Z,11.65
2023-01-22T06:05:16.574Z,18.77
2023-01-22T06:07:48.537Z,11.32
2023-01-22T06:10:18.199Z,13.75
2023-01-22T06:12:46.865Z,18.62
2023-01-22T06:15:15.277Z,15.38
2023-01-22T06:17:44.614Z,13.95
2023-01-22T06:20:12.655Z,14.07
2023-01-22T06:22:41.156Z,13.52
2023-01-22T06:25:09.773Z,13.60
2023-01-22T06:27:46.920Z,16.90
2023-01-22T06:32:44.505Z,15.00
2023-01-22T06:35:12.869Z,13.65
2023-01-22T06:37:41.649Z,13.60
2023-01-22T06:40:12.704Z,14.60
2023-01-22T06:42:44.274Z,15.55
2023-01-22T06:45:12.658Z,15.10
2023-01-22T06:47:47.531Z,14.90
2023-01-22T06:50:16.636Z,15.30
2023-01-22T06:52:44.736Z,13.98
2023-01-22T06:55:12.850Z,16.02
2023-01-22T06:57:41.173Z,13.50
2023-01-22T07:00:11.289Z,17.23
2023-01-22T07:02:42.156Z,15.27
2023-01-22T07:05:12.483Z,16.67
2023-01-22T07:07:41.140Z,16.70
2023-01-22T07:10:11.620Z,15.40
2023-01-22T07:12:40.822Z,13.38
2023-01-22T07:15:10.278Z,13.30
2023-01-22T07:17:39.203Z,14.73
2023-01-22T07:20:08.585Z,19.33
2023-01-22T07:22:37.089Z,13.70
2023-01-22T07:25:06.745Z,16.23
2023-01-22T07:27:37.614Z,16.48
2023-01-22T07:30:07.575Z,16.05
2023-01-22T07:32:36.689Z,19.40
2023-01-22T07:35:06.452Z,17.10
2023-01-22T07:37:34.872Z,18.95
2023-01-22T07:40:07.429Z,15.23
2023-01-22T07:42:38.577Z,10.90
2023-01-22T07:45:09.800Z,13.35
2023-01-22T07:47:40.153Z,13.23
2023-01-22T07:50:09.272Z,15.90
2023-01-22T07:52:38.742Z,16.45
2023-01-22T07:55:08.146Z,15.52
2023-01-22T07:57:37.015Z,17.87
2023-01-22T08:00:07.451Z,15.80
2023-01-22T08:02:47.429Z,13.10
2023-01-22T08:05:18.017Z,17.02
2023-01-22T08:07:47.808Z,20.45
2023-01-22T08:10:18.109Z,16.90
2023-01-22T08:12:46.789Z,18.00
2023-01-22T08:15:16.958Z,13.05
2023-01-22T08:17:51.621Z,12.32
2023-01-22T08:20:21.800Z,13.30
2023-01-22T08:22:51.795Z,9.45
2023-01-22T08:25:19.678Z,15.32
2023-01-22T08:27:49.704Z,18.75
2023-01-22T08:30:20.775Z,14.67
2023-01-22T08:32:50.855Z,15.18
2023-01-22T08:35:19.546Z,10.73
2023-01-22T08:37:49.227Z,16.33
2023-01-22T08:40:20.068Z,16.25
2023-01-22T08:45:23.280Z,12.32
2023-01-22T08:48:01.259Z,17.52
2023-01-22T08:50:29.984Z,17.85
2023-01-22T08:52:59.242Z,20.67
2023-01-22T08:55:29.989Z,19.58
2023-01-22T08:57:58.994Z,14.85
2023-01-22T09:00:30.544Z,14.38
2023-01-22T09:03:00.277Z,18.60
2023-01-22T09:05:30.073Z,17.85
2023-01-22T09:08:03.606Z,17.67
2023-01-22T09:10:33.627Z,14.98
2023-01-22T09:13:06.056Z,17.40
2023-01-22T09:18:22.749Z,18.00
2023-01-22T09:20:51.088Z,12.20
2023-01-22T09:23:22.586Z,18.12
2023-01-22T09:25:51.277Z,17.60
2023-01-22T09:28:21.326Z,20.85
2023-01-22T09:30:51.242Z,15.82
2023-01-22T09:33:21.012Z,16.12
2023-01-22T09:35:51.665Z,16.98
2023-01-22T09:38:21.986Z,14.07
2023-01-22T09:40:58.977Z,19.20
2023-01-22T09:43:46.177Z,13.57
2023-01-22T09:46:26.168Z,19.92
2023-01-22T09:49:00.767Z,14.73
2023-01-22T09:51:29.957Z,16.60
2023-01-22T09:54:03.204Z,9.15
2023-01-22T09:56:39.022Z,18.53
2023-01-22T09:59:18.905Z,20.50
2023-01-22T10:01:54.425Z,17.83
2023-01-22T10:04:41.606Z,17.80
2023-01-22T10:07:41.873Z,15.05
2023-01-22T10:10:23.076Z,17.05
2023-01-22T10:13:08.905Z,18.20
2023-01-22T10:15:40.238Z,16.87
2023-01-22T10:18:35.086Z,13.10
2023-01-22T10:21:07.015Z,11.65
2023-01-22T10:26:17.665Z,12.55
2023-01-22T10:28:52.367Z,14.25
2023-01-22T10:31:30.541Z,25.75
2023-01-22T10:34:02.938Z,15.48
2023-01-22T10:36:33.779Z,17.08
2023-01-22T10:39:12.333Z,16.20
2023-01-22T10:41:45.261Z,24.30
2023-01-22T10:44:26.187Z,12.50
2023-01-22T10:46:57.531Z,12.25
2023-01-22T10:49:27.826Z,14.77
2023-01-22T10:51:59.985Z,17.15
2023-01-22T10:54:34.409Z,16.87
2023-01-22T10:57:29.619Z,15.68
2023-01-22T11:00:22.958Z,15.48
2023-01-22T11:02:55.218Z,18.80
2023-01-22T11:05:34.469Z,15.25
2023-01-22T11:08:15.217Z,16.67
2023-01-22T11:10:52.595Z,16.00
2023-01-22T11:13:24.275Z,17.70
2023-01-22T11:16:00.506Z,15.77
2023-01-22T11:18:38.851Z,17.12
2023-01-22T11:21:19.094Z,14.90
2023-01-22T11:24:25.403Z,14.13
2023-01-22T11:27:16.415Z,12.57
2023-01-22T11:30:03.683Z,15.55
2023-01-22T11:32:58.689Z,18.75
2023-01-22T11:35:43.373Z,18.60
2023-01-22T11:38:37.568Z,17.92
2023-01-22T11:41:32.888Z,14.45
2023-01-22T11:44:39.174Z,15.15
2023-01-22T11:47:38.032Z,22.45
2023-01-22T11:50:45.259Z,15.02
2023-01-22T11:53:38.879Z,16.83
2023-01-22T11:56:21.069Z,16.25
2023-01-22T11:59:11.875Z,16.55
2023-01-22T12:01:42.650Z,16.65
2023-01-22T12:04:29.954Z,11.68
2023-01-22T12:07:48.823Z,16.35
2023-01-22T12:10:54.880Z,14.50
2023-01-22T12:13:42.303Z,20.62
2023-01-22T12:16:34.510Z,15.57
2023-01-22T12:19:35.671Z,22.00
2023-01-22T12:22:29.677Z,18.90
2023-01-22T12:25:21.101Z,21.92
2023-01-22T12:28:05.447Z,22.08
2023-01-22T12:30:49.280Z,18.20
2023-01-22T12:33:22.864Z,17.52
2023-01-22T12:35:54.498Z,18.37
2023-01-22T12:38:40.989Z,18.02
2023-01-22T12:41:36.568Z,19.45
2023-01-22T12:44:40.453Z,20.98
2023-01-22T12:47:27.643Z,23.55
2023-01-22T12:50:04.936Z,18.95
2023-01-22T12:52:41.238Z,18.42
2023-01-22T12:55:45.329Z,21.25
2023-01-22T12:58:28.556Z,22.62
2023-01-22T13:01:03.997Z,22.52
2023-01-22T13:03:33.614Z,25.83
2023-01-22T13:06:04.898Z,28.70
2023-01-22T13:11:43.213Z,24.95
2023-01-22T13:14:37.588Z,23.87
2023-01-22T13:17:27.912Z,28.87
2023-01-22T13:20:04.543Z,26.37
2023-01-22T13:22:36.853Z,22.95
2023-01-22T13:25:05.398Z,21.95
2023-01-22T13:27:37.429Z,21.80
2023-01-22T13:30:20.054Z,22.15
2023-01-22T13:32:51.505Z,24.65
2023-01-22T13:35:23.252Z,26.48
2023-01-22T13:37:53.290Z,23.30
2023-01-22T13:40:25.202Z,24.65
2023-01-22T13:43:02.981Z,19.92
2023-01-22T13:45:36.577Z,18.48
2023-01-22T13:48:10.770Z,26.12
2023-01-22T13:50:42.463Z,18.23
2023-01-22T13:53:28.740Z,16.45
2023-01-22T13:56:00.610Z,20.62
2023-01-22T13:58:47.112Z,23.70
2023-01-22T14:01:36.311Z,18.08
2023-01-22T14:04:13.136Z,13.88
2023-01-22T14:06:51.913Z,21.90
2023-01-22T14:09:41.918Z,21.67
2023-01-22T14:12:20.732Z,17.23
2023-01-22T14:14:51.641Z,18.42
2023-01-22T14:17:31.311Z,22.87
2023-01-22T14:20:01.948Z,21.67
2023-01-22T14:22:35.986Z,21.23
2023-01-22T14:27:52.569Z,29.35
2023-01-22T14:30:25.156Z,24.95
2023-01-22T14:32:56.447Z,27.98
2023-01-22T14:35:29.378Z,27.00
2023-01-22T14:37:59.868Z,21.60
2023-01-22T14:43:08.849Z,18.10
2023-01-22T14:45:41.688Z,25.23
2023-01-22T14:48:18.947Z,23.02
2023-01-22T14:50:50.995Z,14.13
2023-01-22T14:53:21.193Z,20.15
2023-01-22T14:55:55.065Z,16.25
2023-01-22T14:58:26.207Z,16.87
2023-01-22T15:00:59.612Z,14.77
2023-01-22T15:06:19.745Z,16.37
2023-01-22T15:08:55.356Z,16.98
2023-01-22T15:11:30.382Z,14.95
2023-01-22T15:13:59.216Z,14.00
2023-01-22T15:16:36.224Z,15.98
2023-01-22T15:19:09.352Z,21.30
2023-01-22T15:21:38.141Z,13.73
2023-01-22T15:24:10.278Z,13.15
2023-01-22T15:26:41.096Z,12.63
2023-01-22T15:29:13.311Z,15.50
2023-01-22T15:31:48.200Z,14.40
2023-01-22T15:34:24.581Z,11.75
2023-01-22T15:36:58.169Z,12.25
2023-01-22T15:39:29.046Z,13.30
2023-01-22T15:42:01.727Z,13.55
2023-01-22T15:44:35.791Z,14.25
2023-01-22T15:47:08.666Z,13.90
2023-01-22T15:49:41.441Z,12.60
2023-01-22T15:52:13.909Z,11.68
2023-01-22T15:54:48.650Z,13.70
2023-01-22T15:59:50.860Z,14.45
2023-01-22T16:02:27.836Z,15.10
2023-01-22T16:04:58.885Z,13.45
2023-01-22T16:07:27.988Z,18.02
2023-01-22T16:10:03.411Z,14.95
2023-01-22T16:12:35.145Z,15.10
2023-01-22T16:15:13.750Z,12.88
2023-01-22T16:17:42.614Z,14.93
2023-01-22T16:20:17.562Z,23.45
2023-01-22T16:22:46.957Z,17.98
2023-01-22T16:25:16.505Z,15.95
2023-01-22T16:27:52.040Z,14.87
2023-01-22T16:30:29.511Z,25.50
2023-01-22T16:33:05.123Z,19.30
2023-01-22T16:35:38.155Z,17.87
2023-01-22T16:38:07.673Z,20.02
2023-01-22T16:40:41.111Z,18.48
2023-01-22T16:43:12.374Z,13.35
2023-01-22T16:45:43.118Z,12.43
2023-01-22T16:48:15.856Z,15.52
2023-01-22T16:50:54.815Z,13.60
2023-01-22T16:53:29.166Z,14.73
2023-01-22T16:56:01.803Z,17.33
2023-01-22T16:58:35.300Z,12.63
2023-01-22T17:01:14.532Z,18.42
2023-01-22T17:03:47.192Z,16.50
2023-01-22T17:08:56.188Z,19.50
2023-01-22T17:11:32.581Z,18.33
2023-01-22T17:14:07.733Z,12.02
2023-01-22T17:16:38.909Z,13.55
2023-01-22T17:19:11.231Z,18.58
2023-01-22T17:21:45.682Z,16.70
2023-01-22T17:24:19.127Z,22.80
2023-01-22T17:26:51.852Z,16.95
2023-01-22T17:29:25.942Z,21.33
2023-01-22T17:31:58.166Z,17.80
2023-01-22T17:34:31.797Z,26.15
2023-01-22T17:37:04.299Z,13.23
2023-01-22T17:39:35.196Z,19.83
2023-01-22T17:42:07.264Z,23.33
2023-01-22T17:44:39.566Z,16.60
2023-01-22T17:47:15.960Z,19.90
2023-01-22T17:49:48.192Z,22.75
2023-01-22T17:52:24.481Z,17.73
2023-01-22T17:54:57.559Z,24.10
2023-01-22T17:57:34.650Z,21.20
2023-01-22T18:00:04.766Z,20.48
2023-01-22T18:02:41.056Z,23.33
2023-01-22T18:05:15.095Z,27.15
2023-01-22T18:07:47.614Z,18.62
2023-01-22T18:10:21.461Z,23.60
2023-01-22T18:13:00.805Z,18.30
2023-01-22T18:15:37.494Z,22.30
2023-01-22T18:18:10.448Z,18.67
2023-01-22T18:20:44.681Z,18.83
2023-01-22T18:23:18.946Z,24.42
2023-01-22T18:26:04.572Z,18.50
2023-01-22T18:28:36.406Z,15.80
2023-01-22T18:33:46.249Z,15.80
2023-01-22T18:36:26.317Z,16.98
2023-01-22T18:39:21.627Z,18.05
2023-01-22T18:41:53.269Z,21.87
2023-01-22T18:44:32.603Z,22.23
2023-01-22T18:47:09.768Z,16.62
2023-01-22T18:49:38.362Z,14.25
2023-01-22T18:52:08.136Z,25.48
2023-01-22T18:54:39.174Z,17.17
2023-01-22T18:57:14.041Z,22.67
2023-01-22T18:59:45.830Z,21.35
2023-01-22T19:02:22.905Z,24.15
2023-01-22T19:04:54.734Z,20.42
2023-01-22T19:07:26.581Z,18.02
2023-01-22T19:09:55.091Z,15.77
2023-01-22T19:12:26.307Z,21.00
2023-01-22T19:14:55.951Z,21.85
2023-01-22T19:17:25.981Z,19.77
2023-01-22T19:19:58.747Z,19.33
2023-01-22T19:22:28.346Z,20.15
2023-01-22T19:24:57.695Z,22.58
2023-01-22T19:27:30.601Z,26.10
2023-01-22T19:30:00.946Z,23.25
2023-01-22T19:32:35.485Z,22.60
2023-01-22T19:35:07.263Z,15.07
2023-01-22T19:37:36.680Z,18.92
2023-01-22T19:40:08.779Z,18.17
2023-01-22T19:42:40.348Z,20.15
2023-01-22T19:45:10.604Z,22.17
2023-01-22T19:47:40.417Z,18.45
2023-01-22T19:50:09.296Z,22.02
2023-01-22T19:52:38.206Z,18.27
2023-01-22T19:55:09.179Z,20.88
2023-01-22T19:57:40.279Z,23.02
2023-01-22T20:00:09.992Z,21.50
2023-01-22T20:02:40.715Z,25.17
2023-01-22T20:05:13.486Z,23.67
2023-01-22T20:07:47.080Z,27.27
2023-01-22T20:10:19.447Z,25.02
2023-01-22T20:12:50.741Z,24.98
2023-01-22T20:15:19.082Z,29.17
2023-01-22T20:17:50.428Z,27.45
2023-01-22T20:20:19.317Z,25.58
2023-01-22T20:22:48.997Z,20.37
2023-01-22T20:25:18.493Z,23.17
2023-01-22T20:27:51.112Z,20.88
2023-01-22T20:30:20.472Z,20.67
2023-01-22T20:32:48.844Z,25.37
2023-01-22T20:35:19.177Z,29.52
2023-01-22T20:37:47.781Z,25.50
2023-01-22T20:40:16.594Z,19.40
2023-01-22T20:42:49.315Z,38.60
2023-01-22T20:45:18.333Z,23.08
2023-01-22T20:47:46.612Z,23.42
2023-01-22T20:50:14.655Z,19.15
2023-01-22T20:52:42.720Z,22.83
2023-01-22T20:55:11.211Z,23.62
2023-01-22T20:57:39.893Z,17.45
2023-01-22T21:00:09.986Z,21.05
2023-01-22T21:02:37.980Z,16.90
2023-01-22T21:05:05.929Z,18.30
2023-01-22T21:07:34.030Z,15.68
2023-01-22T21:10:02.043Z,23.08
2023-01-22T21:12:30.903Z,22.67
2023-01-22T21:14:59.259Z,19.12
2023-01-22T21:17:31.727Z,20.48
2023-01-22T21:22:27.992Z,23.12
2023-01-22T21:24:58.723Z,23.80
2023-01-22T21:27:27.023Z,22.95
2023-01-22T21:29:55.561Z,26.52
2023-01-22T21:32:23.433Z,18.50
2023-01-22T21:34:51.684Z,20.98
2023-01-22T21:37:22.491Z,26.12
2023-01-22T21:39:50.321Z,26.40
2023-01-22T21:42:36.995Z,24.77
2023-01-22T21:45:23.961Z,22.85
2023-01-22T21:47:52.244Z,19.48
2023-01-22T21:50:20.534Z,26.10
2023-01-22T21:52:54.556Z,18.37
2023-01-22T21:55:23.766Z,26.40
2023-01-22T21:57:55.277Z,28.73
2023-01-22T22:00:23.536Z,25.23
2023-01-22T22:02:53.049Z,26.67
2023-01-22T22:05:20.931Z,34.78
2023-01-22T22:07:48.716Z,25.90
2023-01-22T22:10:18.198Z,28.65
2023-01-22T22:12:49.228Z,25.88
2023-01-22T22:15:20.461Z,27.60
2023-01-22T22:17:49.253Z,23.42
2023-01-22T22:20:18.102Z,24.90
2023-01-22T22:22:46.223Z,23.58
2023-01-22T22:25:14.128Z,29.33
2023-01-22T22:27:42.448Z,28.02
2023-01-22T22:30:11.351Z,31.37
2023-01-22T22:32:39.431Z,26.98
2023-01-22T22:35:10.651Z,24.10
2023-01-22T22:37:38.454Z,25.33
2023-01-22T22:40:06.738Z,24.87
2023-01-22T22:42:34.922Z,25.20
2023-01-22T22:45:02.830Z,25.50
2023-01-22T22:47:31.290Z,29.37
2023-01-22T22:50:03.003Z,26.37
2023-01-22T22:52:31.797Z,26.90
2023-01-22T22:55:01.704Z,31.42
2023-01-22T22:57:30.953Z,29.20
2023-01-22T22:59:59.833Z,29.55
2023-01-22T23:02:27.701Z,27.90
2023-01-22T23:04:55.417Z,29.37
2023-01-22T23:07:23.656Z,28.33
2023-01-22T23:09:51.488Z,30.52
2023-01-22T23:12:19.241Z,27.60
2023-01-22T23:14:50.372Z,26.17
2023-01-22T23:17:21.244Z,27.90
2023-01-22T23:19:49.581Z,28.85
2023-01-22T23:22:17.455Z,27.10
2023-01-22T23:24:46.818Z,24.67
2023-01-22T23:27:15.029Z,29.67
2023-01-22T23:29:42.807Z,28.67
2023-01-22T23:32:10.848Z,28.30
2023-01-22T23:34:39.075Z,41.67
2023-01-22T23:37:06.755Z,27.73
2023-01-22T23:39:34.549Z,29.23
2023-01-22T23:42:02.713Z,27.95
2023-01-22T23:44:30.508Z,28.70
2023-01-22T23:46:58.173Z,26.40
2023-01-22T23:49:26.418Z,26.87
2023-01-22T23:51:54.210Z,33.47
2023-01-22T23:54:22.038Z,32.33
2023-01-22T23:56:53.117Z,29.55
2023-01-22T23:59:20.875Z,23.95
